Glen Dale, West Virginia
Current Conditions -  °F | °C
As of 5:53 PM on Saturday 22 Nov 2014 (Local Time) from KHLG Reporting Station
Overcast Overcast  
Wind Chill: 44°   Ceiling: 6500
Heat Index: 48°   Visibility: 10mi
Dew Point: 27°   Wind: 8mph
Humidity: 44%   Direction: 190°S
Pressure: 30.13"   Gusts: NA
Location:  39.95°N, 80.76°W
Report Text: KHLG 222253Z 19007KT 10SM OVC065 09/M03 A3013 RMK AO2 SLP215 T00891028
Loading
Personal Weather Stations






























Interactive Weather Map New forecast layout! Learn more

10-Day Weather Forecast

Advertisements
Track Severe Weather on mobile